Mercedes, Argentina
Current Conditions -  °F | °C
As of 11:00 AM on Tuesday 27 Jan 2015 (Local Time) from SARL Reporting Station
Broken Clouds Broken Clouds  
Wind Chill: 91°   Ceiling: 2500
Heat Index: 105°   Visibility: 6mi
Dew Point: 77°   Wind: 10mph
Humidity: 63%   Direction: 360°N
Pressure: 29.83"   Gusts: NA
Location:  29.2°S, 58.08°W
Report Text: SARL 271400Z 36009KT 9999 BKN025 SCT20033/25 Q1010
Loading
Personal Weather Stations






























Interactive Weather Map New forecast layout! Learn more

10-Day Weather Forecast

Advertisements
Track Severe Weather on mobile